Time;durP1;ratioP1;P1;durP2;ratioP2;P2;SDS_P1;SDS_P2;PMS_P1;PMS_P2;Temp;Humidity;BMP_temperature;BMP_pressure;BME280_temperature;BME280_humidity;BME280_pressure;Samples;Min_cycle;Max_cycle;Signal;HPM_P1;HPM_P2
2023/04/10 00:01:37;;;;;;;45.85;30.40;;;7.80;99.90;;;;;;5033510;28;20132;-82
2023/04/10 00:04:03;;;;;;;44.63;30.42;;;7.80;99.90;;;;;;5015721;28;20083;-82
2023/04/10 00:06:30;;;;;;;47.90;30.95;;;7.80;99.90;;;;;;5033465;28;20041;-82
2023/04/10 00:08:59;;;;;;;44.72;30.05;;;7.80;99.90;;;;;;5033360;28;20107;-82
2023/04/10 00:11:25;;;;;;;46.08;30.15;;;7.80;99.90;;;;;;5033200;28;20045;-82
2023/04/10 00:13:52;;;;;;;46.50;31.08;;;7.80;99.90;;;;;;5033472;28;20080;-81
2023/04/10 00:16:18;;;;;;;47.75;31.35;;;7.70;99.90;;;;;;5033231;28;20050;-81
2023/04/10 00:18:44;;;;;;;47.83;31.88;;;7.70;99.90;;;;;;5033275;28;20049;-81
2023/04/10 00:21:10;;;;;;;45.90;32.58;;;7.70;99.90;;;;;;5033200;28;20056;-81
2023/04/10 00:23:36;;;;;;;53.80;32.70;;;7.70;99.90;;;;;;5033028;28;20044;-81
2023/04/10 00:26:02;;;;;;;51.20;33.28;;;7.60;99.90;;;;;;5015603;28;20076;-81
2023/04/10 00:28:27;;;;;;;51.75;33.10;;;7.70;99.90;;;;;;5033212;28;20481;-81
2023/04/10 00:30:53;;;;;;;49.90;32.15;;;7.60;99.90;;;;;;5015639;28;20049;-81
2023/04/10 00:33:19;;;;;;;52.40;33.85;;;7.60;99.90;;;;;;5015372;28;20560;-82
2023/04/10 00:35:45;;;;;;;52.38;34.33;;;7.60;99.90;;;;;;5015676;28;20557;-81
2023/04/10 00:38:10;;;;;;;50.58;33.35;;;7.60;99.90;;;;;;5015413;28;20484;-81
2023/04/10 00:40:36;;;;;;;48.05;34.90;;;7.50;99.90;;;;;;5015226;28;20056;-81
2023/04/10 00:43:02;;;;;;;52.35;34.65;;;7.50;99.90;;;;;;5018844;28;20051;-81
2023/04/10 00:45:27;;;;;;;55.03;36.13;;;7.50;99.90;;;;;;5018910;28;20045;-81
2023/04/10 00:47:54;;;;;;;56.85;36.95;;;7.50;99.90;;;;;;5019155;28;20489;-81
2023/04/10 00:50:21;;;;;;;50.88;34.58;;;7.50;99.90;;;;;;5018813;28;20099;-82
2023/04/10 00:52:47;;;;;;;56.65;38.90;;;7.40;99.90;;;;;;5018514;28;20485;-82
2023/04/10 00:55:14;;;;;;;53.08;35.97;;;7.40;99.90;;;;;;5036313;28;20427;-81
2023/04/10 00:57:47;;;;;;;55.35;36.78;;;7.40;99.90;;;;;;5018688;28;20049;-81
2023/04/10 01:00:14;;;;;;;55.05;38.00;;;7.30;99.90;;;;;;5036584;28;20049;-82
2023/04/10 01:02:40;;;;;;;57.15;36.60;;;7.30;99.90;;;;;;5018736;28;20045;-82
2023/04/10 01:05:08;;;;;;;55.85;37.00;;;7.30;99.90;;;;;;5018859;28;20037;-82
2023/04/10 01:07:42;;;;;;;56.47;39.17;;;7.30;99.90;;;;;;5036362;28;20056;-82
2023/04/10 01:10:16;;;;;;;55.22;37.40;;;7.20;99.90;;;;;;5018604;28;20057;-82
2023/04/10 01:13:10;;;;;;;55.45;37.85;;;7.20;99.90;;;;;;5018485;28;20050;-82
2023/04/10 01:16:11;;;;;;;;;;;7.20;99.90;;;;;;5036585;28;20071;-82
2023/04/10 01:18:47;;;;;;;60.30;39.28;;;7.10;99.90;;;;;;4955833;29;19987;-82
2023/04/10 01:21:15;;;;;;;54.13;36.42;;;7.10;99.90;;;;;;5025179;28;20045;-82
2023/04/10 01:23:53;;;;;;;55.95;39.67;;;7.10;99.90;;;;;;5018220;28;20040;-82
2023/04/10 01:26:35;;;;;;;59.55;40.20;;;7.10;99.90;;;;;;5018358;28;20480;-82
2023/04/10 01:29:08;;;;;;;63.00;40.00;;;7.00;99.90;;;;;;5036245;28;20045;-82
2023/04/10 01:31:43;;;;;;;61.20;40.40;;;7.00;99.90;;;;;;5018113;28;20068;-82
2023/04/10 01:34:20;;;;;;;58.00;40.88;;;7.00;99.90;;;;;;5018175;28;20056;-81
2023/04/10 01:37:10;;;;;;;58.13;41.28;;;7.00;99.90;;;;;;5035855;28;20091;-81
2023/04/10 01:39:40;;;;;;;57.15;40.63;;;7.00;99.90;;;;;;5018010;28;20049;-82
2023/04/10 01:42:07;;;;;;;61.05;41.45;;;6.90;99.90;;;;;;5036250;28;20030;-81
2023/04/10 01:44:35;;;;;;;59.40;41.03;;;6.90;99.90;;;;;;5018005;28;20044;-81
2023/04/10 01:47:03;;;;;;;63.92;43.60;;;6.90;99.90;;;;;;5035712;28;20049;-81
2023/04/10 01:49:30;;;;;;;57.72;40.65;;;6.90;99.90;;;;;;5035613;28;20049;-81
2023/04/10 01:51:58;;;;;;;58.97;40.83;;;6.90;99.90;;;;;;5035353;28;20057;-81
2023/04/10 01:54:30;;;;;;;63.30;45.35;;;6.90;99.90;;;;;;5016883;28;20057;-81
2023/04/10 01:56:58;;;;;;;66.25;43.05;;;6.90;99.90;;;;;;5035524;28;20056;-81
2023/04/10 01:59:23;;;;;;;61.65;42.53;;;6.80;99.90;;;;;;5017348;28;20125;-81
2023/04/10 02:01:58;;;;;;;62.83;44.28;;;6.80;99.90;;;;;;5017381;28;20140;-81
2023/04/10 02:04:27;;;;;;;60.92;41.72;;;6.90;99.90;;;;;;5035471;28;20485;-81
2023/04/10 02:07:06;;;;;;;63.72;43.33;;;6.80;99.90;;;;;;5017669;28;20366;-82
2023/04/10 02:09:44;;;;;;;63.22;42.22;;;6.90;99.90;;;;;;5017947;28;20113;-81
2023/04/10 02:12:15;;;;;;;63.90;43.78;;;6.80;99.90;;;;;;5035323;28;20125;-82
2023/04/10 02:14:45;;;;;;;63.72;43.72;;;6.80;99.90;;;;;;5035206;28;20053;-82
2023/04/10 02:17:14;;;;;;;62.10;43.50;;;6.70;99.90;;;;;;5035334;28;20072;-82
2023/04/10 02:19:41;;;;;;;64.10;42.45;;;6.70;99.90;;;;;;5035138;28;20094;-82
2023/04/10 02:22:07;;;;;;;61.42;44.33;;;6.70;99.90;;;;;;5034917;28;20107;-81
2023/04/10 02:24:34;;;;;;;65.43;43.05;;;6.70;99.90;;;;;;5034942;28;20084;-81
2023/04/10 02:27:00;;;;;;;68.68;45.60;;;6.70;99.90;;;;;;5017181;28;20049;-81
2023/04/10 02:29:26;;;;;;;64.18;45.88;;;6.60;99.90;;;;;;5017093;28;20098;-81
2023/04/10 02:31:51;;;;;;;62.22;42.33;;;6.70;99.90;;;;;;5034745;28;20156;-81
2023/04/10 02:34:17;;;;;;;62.33;44.53;;;6.70;99.90;;;;;;5016977;28;20489;-82
2023/04/10 02:36:43;;;;;;;61.08;44.00;;;6.70;99.90;;;;;;5034605;28;20041;-81
2023/04/10 02:39:08;;;;;;;61.03;43.95;;;6.70;99.90;;;;;;5034650;28;20041;-81
2023/04/10 02:41:34;;;;;;;65.32;45.08;;;6.60;99.90;;;;;;5016639;28;20058;-81
2023/04/10 02:44:00;;;;;;;66.93;45.67;;;6.60;99.90;;;;;;5016805;28;20044;-81
2023/04/10 02:46:26;;;;;;;67.70;45.33;;;6.60;99.90;;;;;;5034434;28;20049;-81
2023/04/10 02:48:52;;;;;;;64.38;46.50;;;6.60;99.90;;;;;;5034435;28;20038;-81
2023/04/10 02:51:17;;;;;;;71.38;46.70;;;6.60;99.90;;;;;;5016384;28;20057;-81
2023/04/10 02:53:44;;;;;;;69.90;46.97;;;6.60;99.90;;;;;;5034092;28;20053;-81
2023/04/10 02:56:11;;;;;;;67.10;46.10;;;6.50;99.90;;;;;;5034289;28;20119;-81
2023/04/10 02:58:38;;;;;;;71.10;47.72;;;6.50;99.90;;;;;;5016783;28;20057;-81
2023/04/10 03:01:07;;;;;;;67.15;44.47;;;6.50;99.90;;;;;;5016798;28;20045;-81
2023/04/10 03:03:32;;;;;;;68.35;45.53;;;6.50;99.90;;;;;;5034126;28;20481;-81
2023/04/10 03:05:58;;;;;;;66.95;46.13;;;6.50;99.90;;;;;;5016315;28;20052;-81
2023/04/10 03:08:24;;;;;;;67.82;47.95;;;6.50;99.90;;;;;;5033947;28;20103;-81
2023/04/10 03:10:49;;;;;;;67.07;46.63;;;6.40;99.90;;;;;;5016522;28;20057;-81
2023/04/10 03:13:15;;;;;;;68.95;48.55;;;6.40;99.90;;;;;;5033991;28;20072;-81
2023/04/10 03:15:41;;;;;;;67.18;46.72;;;6.40;99.90;;;;;;5034018;28;20124;-81
2023/04/10 03:18:08;;;;;;;71.32;48.50;;;6.40;99.90;;;;;;5033903;28;20044;-81
2023/04/10 03:20:36;;;;;;;66.18;46.72;;;6.40;99.90;;;;;;5033901;28;20080;-81
2023/04/10 03:23:02;;;;;;;71.93;48.13;;;6.40;99.90;;;;;;5033704;28;20102;-81
2023/04/10 03:25:28;;;;;;;66.00;46.97;;;6.40;99.90;;;;;;5033766;28;20125;-81
2023/04/10 03:27:54;;;;;;;73.90;49.33;;;6.40;99.90;;;;;;5016257;28;20132;-81
2023/04/10 03:30:20;;;;;;;71.93;48.80;;;6.40;99.90;;;;;;5015989;28;20104;-81
2023/04/10 03:32:45;;;;;;;71.28;48.53;;;6.30;99.90;;;;;;5016036;28;20045;-81
2023/04/10 03:35:11;;;;;;;66.65;47.50;;;6.30;99.90;;;;;;5033632;28;20057;-81
2023/04/10 03:37:37;;;;;;;77.05;48.90;;;6.30;99.90;;;;;;5015854;28;20041;-81
2023/04/10 03:40:07;;;;;;;68.78;49.50;;;6.30;99.90;;;;;;5033537;28;20176;-81
2023/04/10 03:42:33;;;;;;;76.07;50.08;;;6.30;99.90;;;;;;5033593;28;20041;-81
2023/04/10 03:45:01;;;;;;;77.65;48.42;;;6.20;99.90;;;;;;5033677;28;20045;-81
2023/04/10 03:47:27;;;;;;;73.57;50.00;;;6.20;99.90;;;;;;5033521;28;20115;-81
2023/04/10 03:49:53;;;;;;;73.18;49.35;;;6.30;99.90;;;;;;5015939;28;20128;-81
2023/04/10 03:52:19;;;;;;;71.65;48.53;;;6.20;99.90;;;;;;5015464;28;20049;-81
2023/04/10 03:54:44;;;;;;;74.13;51.42;;;6.20;99.90;;;;;;5033331;28;20056;-81
2023/04/10 03:57:10;;;;;;;74.07;50.00;;;6.20;99.90;;;;;;5015880;28;20497;-81
2023/04/10 03:59:36;;;;;;;73.10;48.95;;;6.20;99.90;;;;;;5015850;28;20132;-81
2023/04/10 04:02:01;;;;;;;75.95;51.30;;;6.20;99.90;;;;;;5033157;28;20132;-81
2023/04/10 04:04:27;;;;;;;68.10;48.90;;;6.20;99.90;;;;;;5015828;28;20076;-81
2023/04/10 04:06:52;;;;;;;68.18;47.60;;;6.20;99.90;;;;;;5015751;28;20054;-81
2023/04/10 04:09:18;;;;;;;74.35;50.60;;;6.20;99.90;;;;;;5033226;28;20054;-81
2023/04/10 04:11:44;;;;;;;77.05;52.28;;;6.20;99.90;;;;;;5033311;28;20034;-81
2023/04/10 04:14:10;;;;;;;71.85;51.25;;;6.20;99.90;;;;;;5015659;28;20052;-81
2023/04/10 04:16:35;;;;;;;76.78;55.08;;;6.20;99.90;;;;;;5017037;28;20052;-80
2023/04/10 04:19:01;;;;;;;74.68;51.20;;;6.20;99.90;;;;;;5036968;28;20041;-81
2023/04/10 04:21:26;;;;;;;75.22;52.90;;;6.20;99.90;;;;;;5037199;28;20045;-81
2023/04/10 04:23:52;;;;;;;75.28;51.95;;;6.20;99.90;;;;;;5019247;28;20393;-81
2023/04/10 04:26:18;;;;;;;77.97;52.22;;;6.20;99.90;;;;;;5019614;28;20481;-81
2023/04/10 04:28:43;;;;;;;77.45;52.22;;;6.20;99.90;;;;;;5019207;28;20136;-81
2023/04/10 04:31:09;;;;;;;74.50;51.92;;;6.20;99.90;;;;;;5019371;28;20041;-81
2023/04/10 04:33:34;;;;;;;74.70;53.92;;;6.20;99.90;;;;;;5019247;28;20041;-81
2023/04/10 04:36:00;;;;;;;73.07;52.90;;;6.20;99.90;;;;;;5036719;28;20061;-81
2023/04/10 04:38:26;;;;;;;74.22;53.33;;;6.20;99.90;;;;;;5036746;28;20041;-81
2023/04/10 04:40:51;;;;;;;72.50;52.78;;;6.20;99.90;;;;;;5036845;28;20045;-81
2023/04/10 04:43:17;;;;;;;75.60;50.33;;;6.20;99.90;;;;;;5036513;28;20482;-81
2023/04/10 04:45:42;;;;;;;74.47;51.08;;;6.30;99.90;;;;;;5036207;28;20049;-82
2023/04/10 04:48:08;;;;;;;73.40;51.67;;;6.30;99.90;;;;;;5036146;28;20045;-81
2023/04/10 04:50:34;;;;;;;78.75;50.08;;;6.30;99.90;;;;;;5017563;28;20093;-81
2023/04/10 04:53:00;;;;;;;74.78;49.35;;;6.30;99.90;;;;;;5018166;28;20049;-81
2023/04/10 04:55:25;;;;;;;75.53;50.95;;;6.20;99.90;;;;;;5018661;28;20061;-81
2023/04/10 04:57:52;;;;;;;73.07;50.22;;;6.20;99.90;;;;;;5036238;28;20060;-81
2023/04/10 05:00:17;;;;;;;69.32;47.97;;;6.20;99.90;;;;;;5018489;28;20049;-81
2023/04/10 05:02:43;;;;;;;75.60;51.60;;;6.30;99.90;;;;;;5034903;28;20045;-81
2023/04/10 05:05:09;;;;;;;70.43;50.72;;;6.30;99.90;;;;;;5037225;28;20053;-81
2023/04/10 05:07:34;;;;;;;67.57;47.63;;;6.30;99.90;;;;;;5056099;28;20075;-81
2023/04/10 05:10:00;;;;;;;68.70;47.53;;;6.30;99.90;;;;;;5056014;28;20049;-81
2023/04/10 05:12:26;;;;;;;73.68;50.38;;;6.30;99.90;;;;;;5038061;28;20061;-81
2023/04/10 05:14:52;;;;;;;71.20;49.60;;;6.30;99.90;;;;;;5055839;28;20132;-81
2023/04/10 05:17:17;;;;;;;69.68;48.22;;;6.30;99.90;;;;;;5056030;28;20139;-81
2023/04/10 05:19:43;;;;;;;67.85;46.47;;;6.40;99.90;;;;;;5055743;28;20180;-81
2023/04/10 05:22:08;;;;;;;66.00;45.78;;;6.40;99.90;;;;;;5055912;28;20049;-81
2023/04/10 05:24:34;;;;;;;66.85;47.28;;;6.40;99.90;;;;;;5038110;28;20041;-81
2023/04/10 05:27:00;;;;;;;68.97;48.58;;;6.50;99.90;;;;;;5038035;28;20045;-81
2023/04/10 05:29:25;;;;;;;66.93;47.50;;;6.50;99.90;;;;;;5036781;28;20400;-81
2023/04/10 05:31:51;;;;;;;68.72;48.15;;;6.50;99.90;;;;;;5055528;28;20049;-81
2023/04/10 05:34:17;;;;;;;62.67;43.83;;;6.50;99.90;;;;;;5037538;28;20447;-81
2023/04/10 05:36:42;;;;;;;65.75;46.15;;;6.50;99.90;;;;;;5055783;28;20048;-81
2023/04/10 05:39:08;;;;;;;70.50;47.55;;;6.50;99.90;;;;;;5037517;28;20077;-81
2023/04/10 05:41:34;;;;;;;65.90;46.65;;;6.50;99.90;;;;;;5055339;28;20045;-81
2023/04/10 05:44:00;;;;;;;65.55;46.55;;;6.50;99.90;;;;;;5055450;28;20056;-82
2023/04/10 05:46:25;;;;;;;65.93;46.28;;;6.60;99.90;;;;;;5055183;28;20041;-81
2023/04/10 05:48:51;;;;;;;65.05;46.60;;;6.60;99.90;;;;;;5037376;28;20392;-81
2023/04/10 05:51:18;;;;;;;63.38;45.78;;;6.60;99.90;;;;;;5037327;28;20057;-81
2023/04/10 05:53:44;;;;;;;66.13;45.97;;;6.60;99.90;;;;;;5055145;28;20060;-81
2023/04/10 05:56:09;;;;;;;65.43;44.78;;;6.70;99.90;;;;;;5037636;28;20041;-81
2023/04/10 05:58:35;;;;;;;60.22;44.42;;;6.80;99.90;;;;;;5037227;28;20459;-81
2023/04/10 06:01:01;;;;;;;63.28;46.03;;;6.90;99.90;;;;;;5037328;28;20053;-81
2023/04/10 06:03:28;;;;;;;67.20;44.42;;;6.90;99.90;;;;;;5054978;28;20040;-81
2023/04/10 06:05:53;;;;;;;61.03;41.05;;;7.00;99.90;;;;;;5037533;28;20397;-81
2023/04/10 06:08:19;;;;;;;60.80;42.20;;;7.10;99.90;;;;;;5037242;28;20045;-81
2023/04/10 06:10:48;;;;;;;61.58;42.72;;;7.20;99.90;;;;;;5037633;28;20049;-82
2023/04/10 06:13:14;;;;;;;58.75;40.03;;;7.30;99.90;;;;;;5037150;28;20049;-81
2023/04/10 06:15:40;;;;;;;57.97;40.80;;;7.40;99.90;;;;;;5036886;28;20488;-81
2023/04/10 06:18:05;;;;;;;54.10;39.10;;;7.50;99.90;;;;;;5036912;28;20136;-82
2023/04/10 06:20:31;;;;;;;54.60;39.40;;;7.60;99.90;;;;;;5054881;28;20051;-81
2023/04/10 06:22:58;;;;;;;55.65;38.17;;;7.60;99.90;;;;;;5054732;28;20542;-81
2023/04/10 06:25:23;;;;;;;52.22;37.25;;;7.60;99.90;;;;;;5054551;28;20382;-81
2023/04/10 06:27:50;;;;;;;52.40;36.70;;;7.70;99.90;;;;;;5054421;28;20039;-82
2023/04/10 06:30:15;;;;;;;52.13;35.20;;;7.80;99.90;;;;;;5036820;28;20132;-81
2023/04/10 06:32:41;;;;;;;51.78;36.05;;;7.80;99.90;;;;;;5036566;28;20120;-82
2023/04/10 06:35:07;;;;;;;49.17;34.15;;;7.90;99.90;;;;;;5054631;28;20127;-82
2023/04/10 06:37:33;;;;;;;51.00;35.42;;;8.00;99.90;;;;;;5054334;28;20081;-81
2023/04/10 06:40:05;;;;;;;48.38;34.28;;;8.10;99.90;;;;;;5053952;28;20068;-82
2023/04/10 06:42:31;;;;;;;48.55;32.72;;;8.20;99.90;;;;;;5036647;28;20045;-81
2023/04/10 06:44:56;;;;;;;47.38;32.85;;;8.40;99.90;;;;;;5054247;28;20033;-82
2023/04/10 06:47:22;;;;;;;49.58;34.53;;;8.50;99.90;;;;;;5036393;28;20140;-80
2023/04/10 06:49:47;;;;;;;46.85;32.95;;;8.60;99.90;;;;;;5036538;28;20084;-82
2023/04/10 06:52:13;;;;;;;42.03;29.95;;;8.60;99.90;;;;;;5036090;28;20370;-82
2023/04/10 06:54:42;;;;;;;43.22;32.28;;;8.60;99.90;;;;;;5036211;28;20458;-82
2023/04/10 06:57:07;;;;;;;40.88;28.63;;;8.70;99.90;;;;;;5053936;28;20080;-82
2023/04/10 06:59:34;;;;;;;40.67;28.73;;;8.70;99.90;;;;;;5009633;28;20077;-81
2023/04/10 07:02:01;;;;;;;41.60;30.95;;;8.70;99.90;;;;;;4996576;28;20109;-81
2023/04/10 07:04:27;;;;;;;43.50;29.10;;;8.70;99.90;;;;;;4996475;28;20073;-81
2023/04/10 07:06:53;;;;;;;36.28;25.27;;;8.80;99.90;;;;;;5014211;28;20077;-82
2023/04/10 07:09:18;;;;;;;37.53;26.80;;;9.00;99.90;;;;;;4996526;28;20042;-83
2023/04/10 07:11:44;;;;;;;38.67;28.15;;;9.20;99.90;;;;;;4996220;28;20042;-83
2023/04/10 07:14:10;;;;;;;36.22;26.85;;;9.50;99.90;;;;;;5013780;28;20120;-84
2023/04/10 07:16:36;;;;;;;37.47;26.35;;;9.70;99.90;;;;;;4996467;28;20050;-83
2023/04/10 07:19:02;;;;;;;36.70;25.80;;;9.80;99.90;;;;;;4980039;28;20042;-81
2023/04/10 07:21:27;;;;;;;36.47;25.85;;;9.90;99.90;;;;;;4996173;28;20042;-82
2023/04/10 07:23:53;;;;;;;36.13;25.17;;;10.00;99.90;;;;;;4996124;28;20122;-81
2023/04/10 07:26:19;;;;;;;36.67;25.17;;;10.10;99.90;;;;;;4996034;28;20073;-82
2023/04/10 07:28:45;;;;;;;36.58;24.65;;;10.20;99.90;;;;;;5013829;28;20050;-86
2023/04/10 07:31:11;;;;;;;31.98;23.45;;;10.30;99.90;;;;;;5013683;28;20096;-81
2023/04/10 07:33:39;;;;;;;35.60;25.40;;;10.40;99.90;;;;;;5013624;28;20053;-84
2023/04/10 07:36:05;;;;;;;34.75;25.00;;;10.50;99.90;;;;;;4996089;28;20046;-84
2023/04/10 07:38:31;;;;;;;31.27;23.10;;;10.70;99.90;;;;;;4995965;28;20052;-84
2023/04/10 07:40:58;;;;;;;30.58;21.65;;;10.90;99.90;;;;;;4996063;28;20401;-84
2023/04/10 07:43:24;;;;;;;34.20;21.35;;;11.00;99.90;;;;;;4996216;28;20041;-83
2023/04/10 07:45:50;;;;;;;32.30;21.42;;;11.10;99.90;;;;;;4995968;28;20042;-83
2023/04/10 07:48:15;;;;;;;30.58;21.35;;;11.10;99.90;;;;;;4996660;28;20096;-84
2023/04/10 07:50:42;;;;;;;30.17;21.02;;;11.20;99.90;;;;;;4995201;28;20050;-85
2023/04/10 07:53:12;;;;;;;30.48;21.42;;;11.20;99.90;;;;;;5013148;28;20508;-84
2023/04/10 07:55:39;;;;;;;30.33;20.40;;;11.30;99.90;;;;;;4995714;28;20052;-84
2023/04/10 07:58:05;;;;;;;25.55;18.80;;;11.40;99.90;;;;;;4996038;28;20558;-85
2023/04/10 08:00:31;;;;;;;26.48;18.40;;;11.40;99.90;;;;;;4996013;28;20137;-85
2023/04/10 08:02:57;;;;;;;27.48;20.67;;;11.50;99.90;;;;;;4995685;28;20177;-85
2023/04/10 08:05:23;;;;;;;30.05;19.85;;;11.60;99.90;;;;;;4996018;28;20132;-85
2023/04/10 08:07:49;;;;;;;29.70;20.08;;;11.60;99.90;;;;;;4996272;28;20046;-85
2023/04/10 08:10:14;;;;;;;27.90;20.15;;;11.60;99.90;;;;;;4995919;28;20452;-85
2023/04/10 08:12:40;;;;;;;33.00;21.85;;;11.60;99.90;;;;;;5013441;28;20054;-84
2023/04/10 08:15:06;;;;;;;30.55;22.83;;;11.80;99.90;;;;;;4995592;28;20054;-84
2023/04/10 08:17:32;;;;;;;30.95;21.40;;;12.10;99.90;;;;;;5013218;28;20125;-83
2023/04/10 08:19:57;;;;;;;35.35;22.35;;;12.20;99.90;;;;;;4995983;28;20173;-84
2023/04/10 08:22:23;;;;;;;33.38;22.17;;;12.30;99.90;;;;;;4995581;28;20100;-83
2023/04/10 08:24:48;;;;;;;30.27;21.92;;;12.40;99.90;;;;;;4995867;28;20048;-84
2023/04/10 08:27:15;;;;;;;32.65;23.00;;;12.50;99.90;;;;;;5012979;28;20042;-83
2023/04/10 08:29:41;;;;;;;33.05;22.10;;;12.50;99.90;;;;;;4995760;28;20081;-83
2023/04/10 08:32:07;;;;;;;32.03;23.15;;;12.60;99.90;;;;;;4995355;28;20474;-82
2023/04/10 08:34:33;;;;;;;33.72;24.33;;;12.60;99.90;;;;;;4995367;28;20135;-82
2023/04/10 08:36:59;;;;;;;32.35;24.90;;;12.60;99.90;;;;;;4995559;28;20069;-82
2023/04/10 08:39:24;;;;;;;31.67;23.65;;;12.70;99.90;;;;;;5013045;28;20049;-84
2023/04/10 08:41:50;;;;;;;34.00;22.38;;;12.90;99.90;;;;;;4995700;28;20045;-80
2023/04/10 08:44:16;;;;;;;32.53;22.45;;;12.90;99.90;;;;;;4995497;28;20050;-81
2023/04/10 08:46:43;;;;;;;33.88;24.85;;;13.00;99.90;;;;;;5013193;28;20070;-84
2023/04/10 08:49:14;;;;;;;30.73;22.40;;;13.00;99.90;;;;;;5031617;28;20056;-86
2023/04/10 08:51:57;;;;;;;31.23;23.13;;;13.00;99.90;;;;;;5052092;28;20047;-83
2023/04/10 08:54:27;;;;;;;29.48;22.75;;;13.10;99.90;;;;;;5052414;28;20128;-84
2023/04/10 08:56:54;;;;;;;31.80;24.13;;;13.40;99.90;;;;;;5034602;28;20400;-84
2023/04/10 08:59:19;;;;;;;31.98;23.13;;;13.50;99.90;;;;;;5052340;28;20480;-83
2023/04/10 09:01:46;;;;;;;31.70;22.63;;;13.50;99.90;;;;;;5034799;28;20573;-85
2023/04/10 09:04:12;;;;;;;31.35;23.25;;;13.40;99.90;;;;;;5037838;28;20554;-83
2023/04/10 09:06:38;;;;;;;30.17;21.98;;;13.30;99.90;;;;;;5003616;28;20038;-85
2023/04/10 09:09:07;;;;;;;29.73;22.98;;;13.30;99.90;;;;;;5008864;28;20120;-85
2023/04/10 09:11:51;;;;;;;30.63;23.67;;;13.40;99.90;;;;;;4998624;28;20132;-85
2023/04/10 09:14:25;;;;;;;31.30;22.55;;;13.40;99.90;;;;;;4999533;28;20062;-85
2023/04/10 09:16:52;;;;;;;32.70;22.73;;;13.50;99.90;;;;;;4998642;28;20052;-86
2023/04/10 09:19:32;;;;;;;30.17;22.27;;;13.40;99.90;;;;;;4992350;28;20041;-85
2023/04/10 09:21:58;;;;;;;31.65;22.90;;;13.40;99.90;;;;;;4995969;28;20511;-85
2023/04/10 09:24:25;;;;;;;29.63;21.63;;;13.40;99.90;;;;;;5006921;28;20041;-85
2023/04/10 09:26:50;;;;;;;29.08;20.80;;;13.40;99.90;;;;;;4998348;28;20046;-86
2023/04/10 09:29:16;;;;;;;29.13;22.08;;;13.50;99.90;;;;;;4998124;28;20056;-85
2023/04/10 09:31:45;;;;;;;27.73;21.20;;;13.60;99.90;;;;;;5015866;28;20041;-84
2023/04/10 09:34:17;;;;;;;27.60;19.02;;;13.70;99.90;;;;;;4998093;28;20090;-84
2023/04/10 09:36:54;;;;;;;26.27;20.48;;;13.70;99.90;;;;;;4998127;28;20073;-86
2023/04/10 09:39:21;;;;;;;24.42;18.45;;;13.80;99.90;;;;;;4999498;28;20046;-84
2023/04/10 09:41:52;;;;;;;26.10;19.65;;;13.70;99.90;;;;;;4998213;28;20046;-86
2023/04/10 09:44:30;;;;;;;24.02;18.65;;;13.70;99.90;;;;;;4997937;28;20390;-85
2023/04/10 09:46:56;;;;;;;24.77;17.85;;;13.80;99.90;;;;;;5009239;28;20037;-86
2023/04/10 09:49:21;;;;;;;24.27;18.35;;;13.80;99.90;;;;;;5024203;28;20053;-85
2023/04/10 09:51:48;;;;;;;22.45;17.85;;;13.90;99.90;;;;;;5022376;28;20401;-87
2023/04/10 09:54:16;;;;;;;24.25;18.10;;;13.80;99.90;;;;;;5025151;28;20049;-86
2023/04/10 09:56:44;;;;;;;21.58;16.98;;;14.00;99.90;;;;;;5044480;28;20584;-85
2023/04/10 09:59:13;;;;;;;21.67;16.58;;;14.10;99.90;;;;;;5042087;28;20048;-85
2023/04/10 10:01:39;;;;;;;23.95;17.77;;;14.10;99.90;;;;;;5028652;28;20107;-86
2023/04/10 10:04:06;;;;;;;21.33;16.52;;;14.20;99.90;;;;;;5033814;28;20049;-86
2023/04/10 10:06:32;;;;;;;20.95;16.48;;;14.30;99.90;;;;;;5033524;28;20048;-85
2023/04/10 10:09:03;;;;;;;24.13;16.52;;;14.30;99.90;;;;;;5033846;28;20087;-85
2023/04/10 10:11:31;;;;;;;21.30;16.15;;;14.30;99.90;;;;;;5033496;28;20048;-84
2023/04/10 10:13:59;;;;;;;20.55;16.00;;;14.20;99.90;;;;;;5019479;28;20058;-86
2023/04/10 10:16:33;;;;;;;23.38;15.50;;;14.10;99.90;;;;;;5014932;28;20108;-85
2023/04/10 10:19:15;;;;;;;19.75;15.13;;;14.10;99.90;;;;;;4997332;28;20050;-85
2023/04/10 10:21:43;;;;;;;22.70;15.75;;;14.10;99.90;;;;;;5013540;28;20053;-84
2023/04/10 10:24:11;;;;;;;23.25;16.00;;;14.10;99.90;;;;;;5036974;28;20041;-85
2023/04/10 10:26:41;;;;;;;19.38;15.10;;;14.00;99.90;;;;;;5036510;28;20040;-86
2023/04/10 10:29:12;;;;;;;20.75;16.55;;;13.90;99.90;;;;;;5036547;28;20041;-83
2023/04/10 10:31:38;;;;;;;19.00;14.80;;;14.00;99.90;;;;;;5053163;28;20045;-83
2023/04/10 10:34:06;;;;;;;22.00;15.65;;;14.00;99.90;;;;;;5034466;28;20060;-83
2023/04/10 10:36:32;;;;;;;19.08;14.40;;;14.00;99.90;;;;;;5035345;28;20045;-83
2023/04/10 10:39:04;;;;;;;18.67;13.93;;;14.10;99.90;;;;;;5036282;28;20044;-83
2023/04/10 10:41:46;;;;;;;18.17;13.40;;;14.10;99.90;;;;;;5036126;28;20050;-84
2023/04/10 10:44:26;;;;;;;17.13;12.82;;;14.20;99.90;;;;;;5035632;28;20400;-81
2023/04/10 10:47:01;;;;;;;17.13;12.88;;;14.10;99.90;;;;;;5036221;28;20506;-85
2023/04/10 10:49:58;;;;;;;15.88;12.25;;;14.10;99.90;;;;;;5036428;28;20109;-83
2023/04/10 10:52:43;;;;;;;15.52;12.10;;;14.30;99.90;;;;;;5035883;28;20106;-83
2023/04/10 10:55:21;;;;;;;14.73;11.23;;;14.20;99.90;;;;;;5036083;28;20128;-83
2023/04/10 10:57:48;;;;;;;15.63;11.57;;;14.10;99.90;;;;;;5036244;28;20136;-83
2023/04/10 11:00:18;;;;;;;14.43;10.88;;;14.10;99.90;;;;;;5036052;28;20132;-84
2023/04/10 11:02:44;;;;;;;14.75;11.25;;;14.10;99.90;;;;;;5035966;28;20052;-83
2023/04/10 11:05:53;;;;;;;15.63;10.73;;;14.10;99.90;;;;;;5053673;28;20048;-84
2023/04/10 11:08:41;;;;;;;14.15;10.48;;;14.20;99.90;;;;;;5036126;28;20120;-84
2023/04/10 11:11:22;;;;;;;14.20;9.60;;;14.10;99.90;;;;;;5053606;28;20044;-84
2023/04/10 11:13:55;;;;;;;14.40;10.80;;;14.10;99.90;;;;;;5053338;28;20052;-89
2023/04/10 11:16:21;;;;;;;;;;;14.10;99.90;;;;;;5036216;28;20045;-83
2023/04/10 11:18:50;;;;;;;14.38;10.20;;;14.10;99.90;;;;;;5053486;28;19990;-82
2023/04/10 11:21:17;;;;;;;13.32;9.80;;;14.00;99.90;;;;;;5035608;28;20052;-81
2023/04/10 11:23:48;;;;;;;14.45;10.43;;;14.10;99.90;;;;;;4996661;28;20050;-81
2023/04/10 11:26:38;;;;;;;14.38;10.63;;;14.10;99.90;;;;;;4995721;28;20089;-82
2023/04/10 11:29:05;;;;;;;14.23;10.15;;;14.10;99.90;;;;;;5013817;28;20129;-82
2023/04/10 11:31:32;;;;;;;13.15;9.00;;;14.20;99.90;;;;;;5014100;28;20045;-81
2023/04/10 11:34:11;;;;;;;11.23;7.85;;;14.30;99.90;;;;;;4996123;28;20038;-82
2023/04/10 11:36:42;;;;;;;11.73;8.70;;;14.40;99.90;;;;;;5014023;28;20045;-82
2023/04/10 11:39:12;;;;;;;14.70;10.80;;;14.30;99.90;;;;;;4996135;28;20065;-82
2023/04/10 11:41:40;;;;;;;11.13;8.55;;;14.30;99.90;;;;;;4996191;28;20504;-82
2023/04/10 11:44:07;;;;;;;12.75;8.60;;;14.40;99.90;;;;;;4996253;28;20121;-82
2023/04/10 11:46:40;;;;;;;12.43;8.93;;;14.50;99.90;;;;;;4995925;28;20780;-82
2023/04/10 11:49:10;;;;;;;11.32;8.50;;;14.60;99.90;;;;;;4996244;28;20049;-82
2023/04/10 11:51:37;;;;;;;13.73;7.50;;;14.80;99.90;;;;;;4995999;28;20060;-82
2023/04/10 11:54:24;;;;;;;10.40;8.25;;;14.90;99.90;;;;;;4995877;28;20568;-81
2023/04/10 11:57:11;;;;;;;13.30;8.00;;;15.10;99.90;;;;;;5013384;28;20061;-81
2023/04/10 11:59:37;;;;;;;11.10;8.68;;;15.30;99.90;;;;;;4995928;28;20053;-82
2023/04/10 12:02:04;;;;;;;9.93;7.55;;;15.30;99.90;;;;;;5013482;28;20173;-82
2023/04/10 12:04:30;;;;;;;9.35;7.07;;;15.40;99.90;;;;;;4996351;28;20115;-82
2023/04/10 12:06:56;;;;;;;11.68;8.00;;;15.40;99.90;;;;;;4995709;28;20564;-81
2023/04/10 12:09:22;;;;;;;11.20;7.55;;;15.60;99.90;;;;;;5013697;28;20042;-81
2023/04/10 12:11:51;;;;;;;12.55;7.78;;;15.70;99.90;;;;;;5013649;28;20053;-81
2023/04/10 12:14:18;;;;;;;10.57;8.00;;;15.60;99.90;;;;;;4995800;28;20057;-81
2023/04/10 12:16:45;;;;;;;10.48;7.18;;;15.50;99.90;;;;;;4996057;28;20050;-82
2023/04/10 12:19:11;;;;;;;10.68;7.60;;;15.60;99.90;;;;;;4995923;28;20100;-81
2023/04/10 12:21:39;;;;;;;9.60;7.00;;;15.50;99.90;;;;;;4995768;28;20053;-81
2023/04/10 12:24:05;;;;;;;10.20;7.00;;;15.50;99.90;;;;;;4995596;28;20056;-81
2023/04/10 12:26:31;;;;;;;9.05;6.72;;;15.50;99.90;;;;;;4996227;28;20058;-81
2023/04/10 12:28:57;;;;;;;10.95;6.88;;;15.40;99.90;;;;;;4995934;28;20460;-82
2023/04/10 12:31:31;;;;;;;9.55;7.00;;;15.20;99.90;;;;;;4995606;28;20077;-82
2023/04/10 12:33:57;;;;;;;10.00;6.43;;;15.20;99.90;;;;;;4995550;28;20050;-82
2023/04/10 12:36:28;;;;;;;10.45;7.65;;;15.20;99.90;;;;;;4995616;28;20049;-82
2023/04/10 12:38:59;;;;;;;8.70;7.15;;;15.20;99.90;;;;;;5016529;28;20042;-81
2023/04/10 12:41:28;;;;;;;8.90;6.07;;;15.10;99.90;;;;;;5016914;28;20516;-81